sensor_id;sensor_type;location;lat;lon;timestamp;temperature;humidity
64951;DHT22;51482;47.014;7.652;2023-11-21T00:02:12;9.30;99.90
64951;DHT22;51482;47.014;7.652;2023-11-21T00:04:37;8.90;99.90
64951;DHT22;51482;47.014;7.652;2023-11-21T00:07:03;9.30;99.90
64951;DHT22;51482;47.014;7.652;2023-11-21T00:09:29;8.90;99.90
64951;DHT22;51482;47.014;7.652;2023-11-21T00:11:54;8.90;99.90
64951;DHT22;51482;47.014;7.652;2023-11-21T00:14:20;8.90;99.90
64951;DHT22;51482;47.014;7.652;2023-11-21T00:16:45;9.30;99.90
64951;DHT22;51482;47.014;7.652;2023-11-21T00:19:11;9.50;99.90
64951;DHT22;51482;47.014;7.652;2023-11-21T00:21:37;8.90;99.90
64951;DHT22;51482;47.014;7.652;2023-11-21T00:24:03;8.90;99.90
64951;DHT22;51482;47.014;7.652;2023-11-21T00:26:29;8.80;99.90
64951;DHT22;51482;47.014;7.652;2023-11-21T00:28:56;9.30;99.90
64951;DHT22;51482;47.014;7.652;2023-11-21T00:31:22;8.80;99.90
64951;DHT22;51482;47.014;7.652;2023-11-21T00:33:47;9.20;99.90
64951;DHT22;51482;47.014;7.652;2023-11-21T00:36:13;9.20;99.90
64951;DHT22;51482;47.014;7.652;2023-11-21T00:38:38;8.70;99.90
64951;DHT22;51482;47.014;7.652;2023-11-21T00:41:06;8.60;99.90
64951;DHT22;51482;47.014;7.652;2023-11-21T00:43:31;8.60;99.90
64951;DHT22;51482;47.014;7.652;2023-11-21T00:45:59;9.00;99.90
64951;DHT22;51482;47.014;7.652;2023-11-21T00:48:24;8.00;99.90
64951;DHT22;51482;47.014;7.652;2023-11-21T00:50:50;9.10;99.90
64951;DHT22;51482;47.014;7.652;2023-11-21T00:53:15;8.60;99.90
64951;DHT22;51482;47.014;7.652;2023-11-21T00:55:41;8.90;99.90
64951;DHT22;51482;47.014;7.652;2023-11-21T00:58:07;9.00;99.90
64951;DHT22;51482;47.014;7.652;2023-11-21T01:00:33;8.00;99.90
64951;DHT22;51482;47.014;7.652;2023-11-21T01:02:59;9.00;99.90
64951;DHT22;51482;47.014;7.652;2023-11-21T01:05:25;9.10;99.90
64951;DHT22;51482;47.014;7.652;2023-11-21T01:07:50;9.10;99.90
64951;DHT22;51482;47.014;7.652;2023-11-21T01:10:16;8.60;99.90
64951;DHT22;51482;47.014;7.652;2023-11-21T01:12:42;8.60;99.90
64951;DHT22;51482;47.014;7.652;2023-11-21T01:15:08;8.70;99.90
64951;DHT22;51482;47.014;7.652;2023-11-21T01:17:34;8.70;99.90
64951;DHT22;51482;47.014;7.652;2023-11-21T01:20:01;8.80;99.90
64951;DHT22;51482;47.014;7.652;2023-11-21T01:22:27;9.30;99.90
64951;DHT22;51482;47.014;7.652;2023-11-21T01:24:53;8.70;99.90
64951;DHT22;51482;47.014;7.652;2023-11-21T01:27:19;9.30;99.90
64951;DHT22;51482;47.014;7.652;2023-11-21T01:29:44;9.20;99.90
64951;DHT22;51482;47.014;7.652;2023-11-21T01:32:10;9.10;99.90
64951;DHT22;51482;47.014;7.652;2023-11-21T01:34:36;9.40;99.90
64951;DHT22;51482;47.014;7.652;2023-11-21T01:37:03;9.30;99.90
64951;DHT22;51482;47.014;7.652;2023-11-21T01:39:30;9.20;99.90
64951;DHT22;51482;47.014;7.652;2023-11-21T01:41:56;9.20;99.90
64951;DHT22;51482;47.014;7.652;2023-11-21T01:44:24;8.80;99.90
64951;DHT22;51482;47.014;7.652;2023-11-21T01:46:50;8.80;99.90
64951;DHT22;51482;47.014;7.652;2023-11-21T01:49:16;9.20;99.90
64951;DHT22;51482;47.014;7.652;2023-11-21T01:51:45;9.10;99.90
64951;DHT22;51482;47.014;7.652;2023-11-21T01:54:12;8.80;99.90
64951;DHT22;51482;47.014;7.652;2023-11-21T01:56:38;8.70;99.90
64951;DHT22;51482;47.014;7.652;2023-11-21T01:59:04;8.80;99.90
64951;DHT22;51482;47.014;7.652;2023-11-21T02:01:30;9.20;99.90
64951;DHT22;51482;47.014;7.652;2023-11-21T02:03:57;8.80;99.90
64951;DHT22;51482;47.014;7.652;2023-11-21T02:06:22;8.70;99.90
64951;DHT22;51482;47.014;7.652;2023-11-21T02:08:48;9.20;99.90
64951;DHT22;51482;47.014;7.652;2023-11-21T02:11:14;9.40;99.90
64951;DHT22;51482;47.014;7.652;2023-11-21T02:13:39;8.60;99.90
64951;DHT22;51482;47.014;7.652;2023-11-21T02:16:12;9.30;99.90
64951;DHT22;51482;47.014;7.652;2023-11-21T02:18:39;9.40;99.90
64951;DHT22;51482;47.014;7.652;2023-11-21T02:21:05;9.40;99.90
64951;DHT22;51482;47.014;7.652;2023-11-21T02:23:30;8.90;99.90
64951;DHT22;51482;47.014;7.652;2023-11-21T02:25:56;9.30;99.90
64951;DHT22;51482;47.014;7.652;2023-11-21T02:28:22;8.90;99.90
64951;DHT22;51482;47.014;7.652;2023-11-21T02:30:51;8.70;99.90
64951;DHT22;51482;47.014;7.652;2023-11-21T02:33:21;9.30;99.90
64951;DHT22;51482;47.014;7.652;2023-11-21T02:35:47;8.90;99.90
64951;DHT22;51482;47.014;7.652;2023-11-21T02:38:13;9.40;99.90
64951;DHT22;51482;47.014;7.652;2023-11-21T02:40:39;9.40;99.90
64951;DHT22;51482;47.014;7.652;2023-11-21T02:43:04;9.50;99.90
64951;DHT22;51482;47.014;7.652;2023-11-21T02:45:31;9.00;99.90
64951;DHT22;51482;47.014;7.652;2023-11-21T02:47:57;9.30;99.90
64951;DHT22;51482;47.014;7.652;2023-11-21T02:50:23;9.20;99.90
64951;DHT22;51482;47.014;7.652;2023-11-21T02:52:49;9.30;99.90
64951;DHT22;51482;47.014;7.652;2023-11-21T02:55:15;8.80;99.90
64951;DHT22;51482;47.014;7.652;2023-11-21T02:57:41;8.80;99.90
64951;DHT22;51482;47.014;7.652;2023-11-21T03:00:07;8.70;99.90
64951;DHT22;51482;47.014;7.652;2023-11-21T03:02:33;9.20;99.90
64951;DHT22;51482;47.014;7.652;2023-11-21T03:05:02;9.10;99.90
64951;DHT22;51482;47.014;7.652;2023-11-21T03:07:27;9.20;99.90
64951;DHT22;51482;47.014;7.652;2023-11-21T03:09:53;8.60;99.90
64951;DHT22;51482;47.014;7.652;2023-11-21T03:12:19;8.90;99.90
64951;DHT22;51482;47.014;7.652;2023-11-21T03:14:45;8.90;99.90
64951;DHT22;51482;47.014;7.652;2023-11-21T03:17:10;9.00;99.90
64951;DHT22;51482;47.014;7.652;2023-11-21T03:19:37;8.80;99.90
64951;DHT22;51482;47.014;7.652;2023-11-21T03:22:03;8.30;99.90
64951;DHT22;51482;47.014;7.652;2023-11-21T03:24:29;8.20;99.90
64951;DHT22;51482;47.014;7.652;2023-11-21T03:26:55;8.30;99.90
64951;DHT22;51482;47.014;7.652;2023-11-21T03:29:21;8.90;99.90
64951;DHT22;51482;47.014;7.652;2023-11-21T03:31:46;8.80;99.90
64951;DHT22;51482;47.014;7.652;2023-11-21T03:34:19;7.80;99.90
64951;DHT22;51482;47.014;7.652;2023-11-21T03:36:45;7.70;99.90
64951;DHT22;51482;47.014;7.652;2023-11-21T03:39:11;8.90;99.90
64951;DHT22;51482;47.014;7.652;2023-11-21T03:41:37;8.80;99.90
64951;DHT22;51482;47.014;7.652;2023-11-21T03:44:02;8.90;99.90
64951;DHT22;51482;47.014;7.652;2023-11-21T03:46:28;8.40;99.90
64951;DHT22;51482;47.014;7.652;2023-11-21T03:48:54;9.00;99.90
64951;DHT22;51482;47.014;7.652;2023-11-21T03:51:21;9.10;99.90
64951;DHT22;51482;47.014;7.652;2023-11-21T03:53:47;8.30;99.90
64951;DHT22;51482;47.014;7.652;2023-11-21T03:56:14;8.60;99.90
64951;DHT22;51482;47.014;7.652;2023-11-21T03:58:39;8.40;99.90
64951;DHT22;51482;47.014;7.652;2023-11-21T04:01:05;8.30;99.90
64951;DHT22;51482;47.014;7.652;2023-11-21T04:03:31;8.50;99.90
64951;DHT22;51482;47.014;7.652;2023-11-21T04:05:56;8.50;99.90
64951;DHT22;51482;47.014;7.652;2023-11-21T04:08:22;8.40;99.90
64951;DHT22;51482;47.014;7.652;2023-11-21T04:10:47;8.40;99.90
64951;DHT22;51482;47.014;7.652;2023-11-21T04:13:14;9.00;99.90
64951;DHT22;51482;47.014;7.652;2023-11-21T04:15:39;8.10;99.90
64951;DHT22;51482;47.014;7.652;2023-11-21T04:18:05;8.40;99.90
64951;DHT22;51482;47.014;7.652;2023-11-21T04:20:30;9.00;99.90
64951;DHT22;51482;47.014;7.652;2023-11-21T04:22:56;8.00;99.90
64951;DHT22;51482;47.014;7.652;2023-11-21T04:25:21;8.90;99.90
64951;DHT22;51482;47.014;7.652;2023-11-21T04:27:48;8.40;99.90
64951;DHT22;51482;47.014;7.652;2023-11-21T04:30:15;8.90;99.90
64951;DHT22;51482;47.014;7.652;2023-11-21T04:32:40;8.30;99.90
64951;DHT22;51482;47.014;7.652;2023-11-21T04:35:07;8.70;99.90
64951;DHT22;51482;47.014;7.652;2023-11-21T04:37:39;8.20;99.90
64951;DHT22;51482;47.014;7.652;2023-11-21T04:40:05;7.60;99.90
64951;DHT22;51482;47.014;7.652;2023-11-21T04:42:36;8.10;99.90
64951;DHT22;51482;47.014;7.652;2023-11-21T04:45:03;8.10;99.90
64951;DHT22;51482;47.014;7.652;2023-11-21T04:47:33;8.20;99.90
64951;DHT22;51482;47.014;7.652;2023-11-21T04:49:59;8.60;99.90
64951;DHT22;51482;47.014;7.652;2023-11-21T04:52:24;8.20;99.90
64951;DHT22;51482;47.014;7.652;2023-11-21T04:54:50;8.70;99.90
64951;DHT22;51482;47.014;7.652;2023-11-21T04:57:15;8.50;99.90
64951;DHT22;51482;47.014;7.652;2023-11-21T04:59:43;9.10;99.90
64951;DHT22;51482;47.014;7.652;2023-11-21T05:02:09;7.40;99.90
64951;DHT22;51482;47.014;7.652;2023-11-21T05:04:34;8.50;99.90
64951;DHT22;51482;47.014;7.652;2023-11-21T05:07:00;7.90;99.90
64951;DHT22;51482;47.014;7.652;2023-11-21T05:09:26;8.00;99.90
64951;DHT22;51482;47.014;7.652;2023-11-21T05:11:54;8.50;99.90
64951;DHT22;51482;47.014;7.652;2023-11-21T05:14:19;8.10;99.90
64951;DHT22;51482;47.014;7.652;2023-11-21T05:16:45;8.40;99.90
64951;DHT22;51482;47.014;7.652;2023-11-21T05:19:11;8.50;99.90
64951;DHT22;51482;47.014;7.652;2023-11-21T05:21:38;8.40;99.90
64951;DHT22;51482;47.014;7.652;2023-11-21T05:24:04;8.00;99.90
64951;DHT22;51482;47.014;7.652;2023-11-21T05:26:30;8.00;99.90
64951;DHT22;51482;47.014;7.652;2023-11-21T05:28:56;8.00;99.90
64951;DHT22;51482;47.014;7.652;2023-11-21T05:31:21;7.50;99.90
64951;DHT22;51482;47.014;7.652;2023-11-21T05:33:47;7.80;99.90
64951;DHT22;51482;47.014;7.652;2023-11-21T05:36:13;8.40;99.90
64951;DHT22;51482;47.014;7.652;2023-11-21T05:38:38;8.50;99.90
64951;DHT22;51482;47.014;7.652;2023-11-21T05:41:04;7.70;99.90
64951;DHT22;51482;47.014;7.652;2023-11-21T05:43:30;8.40;99.90
64951;DHT22;51482;47.014;7.652;2023-11-21T05:45:56;8.30;99.90
64951;DHT22;51482;47.014;7.652;2023-11-21T05:48:22;8.40;99.90
64951;DHT22;51482;47.014;7.652;2023-11-21T05:50:48;8.40;99.90
64951;DHT22;51482;47.014;7.652;2023-11-21T05:53:15;8.40;99.90
64951;DHT22;51482;47.014;7.652;2023-11-21T05:55:41;7.90;99.90
64951;DHT22;51482;47.014;7.652;2023-11-21T05:58:07;8.30;99.90
64951;DHT22;51482;47.014;7.652;2023-11-21T06:00:33;7.90;99.90
64951;DHT22;51482;47.014;7.652;2023-11-21T06:02:59;8.20;99.90
64951;DHT22;51482;47.014;7.652;2023-11-21T06:05:25;8.40;99.90
64951;DHT22;51482;47.014;7.652;2023-11-21T06:07:52;8.40;99.90
64951;DHT22;51482;47.014;7.652;2023-11-21T06:10:20;7.40;99.90
64951;DHT22;51482;47.014;7.652;2023-11-21T06:12:46;7.30;99.90
64951;DHT22;51482;47.014;7.652;2023-11-21T06:15:12;8.50;99.90
64951;DHT22;51482;47.014;7.652;2023-11-21T06:17:39;7.90;99.90
64951;DHT22;51482;47.014;7.652;2023-11-21T06:20:11;7.90;99.90
64951;DHT22;51482;47.014;7.652;2023-11-21T06:22:41;7.90;99.90
64951;DHT22;51482;47.014;7.652;2023-11-21T06:25:08;8.10;99.90
64951;DHT22;51482;47.014;7.652;2023-11-21T06:27:46;8.00;99.90
64951;DHT22;51482;47.014;7.652;2023-11-21T06:30:12;8.00;99.90
64951;DHT22;51482;47.014;7.652;2023-11-21T06:32:39;8.20;99.90
64951;DHT22;51482;47.014;7.652;2023-11-21T06:35:06;8.00;99.90
64951;DHT22;51482;47.014;7.652;2023-11-21T06:37:32;8.10;99.90
64951;DHT22;51482;47.014;7.652;2023-11-21T06:39:58;8.10;99.90
64951;DHT22;51482;47.014;7.652;2023-11-21T06:42:25;8.10;99.90
64951;DHT22;51482;47.014;7.652;2023-11-21T06:44:51;8.60;99.90
64951;DHT22;51482;47.014;7.652;2023-11-21T06:47:23;8.30;99.90
64951;DHT22;51482;47.014;7.652;2023-11-21T06:49:52;8.00;99.90
64951;DHT22;51482;47.014;7.652;2023-11-21T06:52:18;8.40;99.90
64951;DHT22;51482;47.014;7.652;2023-11-21T06:54:44;8.50;99.90
64951;DHT22;51482;47.014;7.652;2023-11-21T06:57:10;8.00;99.90
64951;DHT22;51482;47.014;7.652;2023-11-21T06:59:36;8.30;99.90
64951;DHT22;51482;47.014;7.652;2023-11-21T07:02:01;7.90;99.90
64951;DHT22;51482;47.014;7.652;2023-11-21T07:04:27;7.90;99.90
64951;DHT22;51482;47.014;7.652;2023-11-21T07:06:56;8.60;99.90
64951;DHT22;51482;47.014;7.652;2023-11-21T07:09:21;8.50;99.90
64951;DHT22;51482;47.014;7.652;2023-11-21T07:11:48;8.00;99.90
64951;DHT22;51482;47.014;7.652;2023-11-21T07:14:14;8.40;99.90
64951;DHT22;51482;47.014;7.652;2023-11-21T07:16:40;8.00;99.90
64951;DHT22;51482;47.014;7.652;2023-11-21T07:19:06;8.00;99.90
64951;DHT22;51482;47.014;7.652;2023-11-21T07:21:33;8.70;99.90
64951;DHT22;51482;47.014;7.652;2023-11-21T07:24:00;8.60;99.90
64951;DHT22;51482;47.014;7.652;2023-11-21T07:26:26;8.50;99.90
64951;DHT22;51482;47.014;7.652;2023-11-21T07:28:52;7.70;99.90
64951;DHT22;51482;47.014;7.652;2023-11-21T07:31:18;7.90;99.90
64951;DHT22;51482;47.014;7.652;2023-11-21T07:33:45;7.90;99.90
64951;DHT22;51482;47.014;7.652;2023-11-21T07:36:13;7.80;99.90
64951;DHT22;51482;47.014;7.652;2023-11-21T07:38:38;8.10;99.90
64951;DHT22;51482;47.014;7.652;2023-11-21T07:41:04;7.80;99.90
64951;DHT22;51482;47.014;7.652;2023-11-21T07:43:30;7.90;99.90
64951;DHT22;51482;47.014;7.652;2023-11-21T07:46:03;8.40;99.90
64951;DHT22;51482;47.014;7.652;2023-11-21T07:48:32;7.90;99.90
64951;DHT22;51482;47.014;7.652;2023-11-21T07:50:59;8.30;99.90
64951;DHT22;51482;47.014;7.652;2023-11-21T07:53:25;8.60;99.90
64951;DHT22;51482;47.014;7.652;2023-11-21T07:55:51;8.60;99.90
64951;DHT22;51482;47.014;7.652;2023-11-21T07:58:17;8.70;99.90
64951;DHT22;51482;47.014;7.652;2023-11-21T08:00:43;8.50;99.90
64951;DHT22;51482;47.014;7.652;2023-11-21T08:03:09;8.60;99.90
64951;DHT22;51482;47.014;7.652;2023-11-21T08:05:34;8.50;99.90
64951;DHT22;51482;47.014;7.652;2023-11-21T08:08:00;8.50;99.90
64951;DHT22;51482;47.014;7.652;2023-11-21T08:10:26;8.80;99.90
64951;DHT22;51482;47.014;7.652;2023-11-21T08:12:52;8.80;99.90
64951;DHT22;51482;47.014;7.652;2023-11-21T08:15:19;8.20;99.90
64951;DHT22;51482;47.014;7.652;2023-11-21T08:17:44;8.20;99.90
64951;DHT22;51482;47.014;7.652;2023-11-21T08:20:10;8.90;99.90
64951;DHT22;51482;47.014;7.652;2023-11-21T08:22:36;8.30;99.90
64951;DHT22;51482;47.014;7.652;2023-11-21T08:25:02;8.90;99.90
64951;DHT22;51482;47.014;7.652;2023-11-21T08:27:30;8.20;99.90
64951;DHT22;51482;47.014;7.652;2023-11-21T08:29:55;8.30;99.90
64951;DHT22;51482;47.014;7.652;2023-11-21T08:32:22;8.70;99.90
64951;DHT22;51482;47.014;7.652;2023-11-21T08:34:48;8.20;99.90
64951;DHT22;51482;47.014;7.652;2023-11-21T08:37:16;7.90;99.90
64951;DHT22;51482;47.014;7.652;2023-11-21T08:39:43;8.70;99.90
64951;DHT22;51482;47.014;7.652;2023-11-21T08:42:09;8.20;99.90
64951;DHT22;51482;47.014;7.652;2023-11-21T08:44:34;8.40;99.90
64951;DHT22;51482;47.014;7.652;2023-11-21T08:47:00;8.90;99.90
64951;DHT22;51482;47.014;7.652;2023-11-21T08:49:25;8.50;99.90
64951;DHT22;51482;47.014;7.652;2023-11-21T08:51:53;9.00;99.90
64951;DHT22;51482;47.014;7.652;2023-11-21T08:54:21;9.10;99.90
64951;DHT22;51482;47.014;7.652;2023-11-21T08:56:46;9.00;99.90
64951;DHT22;51482;47.014;7.652;2023-11-21T08:59:12;9.10;99.90
64951;DHT22;51482;47.014;7.652;2023-11-21T09:01:40;9.20;99.90
64951;DHT22;51482;47.014;7.652;2023-11-21T09:04:06;8.60;99.90
64951;DHT22;51482;47.014;7.652;2023-11-21T09:06:31;9.00;99.90
64951;DHT22;51482;47.014;7.652;2023-11-21T09:08:57;8.70;99.90
64951;DHT22;51482;47.014;7.652;2023-11-21T09:11:23;9.20;99.90
64951;DHT22;51482;47.014;7.652;2023-11-21T09:13:50;9.40;99.90
64951;DHT22;51482;47.014;7.652;2023-11-21T09:16:16;8.50;99.90
64951;DHT22;51482;47.014;7.652;2023-11-21T09:18:42;9.40;99.90
64951;DHT22;51482;47.014;7.652;2023-11-21T09:21:08;9.50;99.90
64951;DHT22;51482;47.014;7.652;2023-11-21T09:23:35;9.50;99.90
64951;DHT22;51482;47.014;7.652;2023-11-21T09:26:01;9.40;99.90
64951;DHT22;51482;47.014;7.652;2023-11-21T09:28:27;9.20;99.90
64951;DHT22;51482;47.014;7.652;2023-11-21T09:30:53;9.50;99.90
64951;DHT22;51482;47.014;7.652;2023-11-21T09:33:19;9.00;99.90
64951;DHT22;51482;47.014;7.652;2023-11-21T09:35:44;9.50;99.90
64951;DHT22;51482;47.014;7.652;2023-11-21T09:38:10;9.10;99.90
64951;DHT22;51482;47.014;7.652;2023-11-21T09:40:36;9.60;99.90
64951;DHT22;51482;47.014;7.652;2023-11-21T09:43:06;9.20;99.90
64951;DHT22;51482;47.014;7.652;2023-11-21T09:45:35;9.70;99.90
64951;DHT22;51482;47.014;7.652;2023-11-21T09:48:01;9.30;99.90
64951;DHT22;51482;47.014;7.652;2023-11-21T09:50:27;9.30;99.90
64951;DHT22;51482;47.014;7.652;2023-11-21T09:55:45;9.80;99.90
64951;DHT22;51482;47.014;7.652;2023-11-21T09:58:12;9.30;99.90
64951;DHT22;51482;47.014;7.652;2023-11-21T10:00:40;9.80;99.90
64951;DHT22;51482;47.014;7.652;2023-11-21T10:03:06;9.30;99.90
64951;DHT22;51482;47.014;7.652;2023-11-21T10:05:32;9.30;99.90
64951;DHT22;51482;47.014;7.652;2023-11-21T10:08:00;9.00;99.90
64951;DHT22;51482;47.014;7.652;2023-11-21T10:10:27;9.70;99.90
64951;DHT22;51482;47.014;7.652;2023-11-21T10:12:56;9.90;99.90
64951;DHT22;51482;47.014;7.652;2023-11-21T10:15:22;9.70;99.90
64951;DHT22;51482;47.014;7.652;2023-11-21T10:17:49;9.70;99.90
64951;DHT22;51482;47.014;7.652;2023-11-21T10:20:16;9.40;99.90
64951;DHT22;51482;47.014;7.652;2023-11-21T10:22:42;9.50;99.90
64951;DHT22;51482;47.014;7.652;2023-11-21T10:25:09;9.60;99.90
64951;DHT22;51482;47.014;7.652;2023-11-21T10:27:36;9.60;99.90
64951;DHT22;51482;47.014;7.652;2023-11-21T10:30:06;10.10;99.90
64951;DHT22;51482;47.014;7.652;2023-11-21T10:32:31;9.70;99.90
64951;DHT22;51482;47.014;7.652;2023-11-21T10:34:58;9.70;99.90
64951;DHT22;51482;47.014;7.652;2023-11-21T10:37:32;9.70;99.90
64951;DHT22;51482;47.014;7.652;2023-11-21T10:40:01;9.80;99.90
64951;DHT22;51482;47.014;7.652;2023-11-21T10:42:26;9.70;99.90
64951;DHT22;51482;47.014;7.652;2023-11-21T10:44:53;9.70;99.90
64951;DHT22;51482;47.014;7.652;2023-11-21T10:47:19;9.50;99.90
64951;DHT22;51482;47.014;7.652;2023-11-21T10:49:48;10.10;99.90
64951;DHT22;51482;47.014;7.652;2023-11-21T10:52:13;9.80;99.90
64951;DHT22;51482;47.014;7.652;2023-11-21T10:54:43;9.80;99.90
64951;DHT22;51482;47.014;7.652;2023-11-21T10:57:10;9.80;99.90
64951;DHT22;51482;47.014;7.652;2023-11-21T10:59:36;9.90;99.90
64951;DHT22;51482;47.014;7.652;2023-11-21T11:02:10;9.90;99.90
64951;DHT22;51482;47.014;7.652;2023-11-21T11:04:38;9.30;99.90
64951;DHT22;51482;47.014;7.652;2023-11-21T11:07:05;9.80;99.90
64951;DHT22;51482;47.014;7.652;2023-11-21T11:09:35;9.90;99.90
64951;DHT22;51482;47.014;7.652;2023-11-21T11:12:04;9.90;99.90
64951;DHT22;51482;47.014;7.652;2023-11-21T11:14:30;10.00;99.90
64951;DHT22;51482;47.014;7.652;2023-11-21T11:16:58;10.30;99.90
64951;DHT22;51482;47.014;7.652;2023-11-21T11:19:25;10.00;99.90
64951;DHT22;51482;47.014;7.652;2023-11-21T11:22:00;9.90;99.90
64951;DHT22;51482;47.014;7.652;2023-11-21T11:24:42;10.10;99.90
64951;DHT22;51482;47.014;7.652;2023-11-21T11:27:39;10.50;99.90
64951;DHT22;51482;47.014;7.652;2023-11-21T11:33:14;10.10;99.90
64951;DHT22;51482;47.014;7.652;2023-11-21T11:38:21;10.20;99.90
64951;DHT22;51482;47.014;7.652;2023-11-21T11:40:52;10.20;99.90
64951;DHT22;51482;47.014;7.652;2023-11-21T11:43:25;9.70;99.90
64951;DHT22;51482;47.014;7.652;2023-11-21T11:45:51;10.20;99.90
64951;DHT22;51482;47.014;7.652;2023-11-21T11:48:22;10.50;99.90
64951;DHT22;51482;47.014;7.652;2023-11-21T11:51:10;10.10;99.90
64951;DHT22;51482;47.014;7.652;2023-11-21T11:53:39;10.10;99.90
64951;DHT22;51482;47.014;7.652;2023-11-21T11:56:26;10.40;99.90
64951;DHT22;51482;47.014;7.652;2023-11-21T11:58:57;10.10;99.90
64951;DHT22;51482;47.014;7.652;2023-11-21T12:01:25;10.10;99.90
64951;DHT22;51482;47.014;7.652;2023-11-21T12:06:52;10.10;99.90
64951;DHT22;51482;47.014;7.652;2023-11-21T12:09:20;9.60;99.90
64951;DHT22;51482;47.014;7.652;2023-11-21T12:11:47;10.20;99.90
64951;DHT22;51482;47.014;7.652;2023-11-21T12:14:16;10.20;99.90
64951;DHT22;51482;47.014;7.652;2023-11-21T12:16:43;10.10;99.90
64951;DHT22;51482;47.014;7.652;2023-11-21T12:19:10;10.50;99.90
64951;DHT22;51482;47.014;7.652;2023-11-21T12:21:36;10.00;99.90
64951;DHT22;51482;47.014;7.652;2023-11-21T12:24:02;10.10;99.90
64951;DHT22;51482;47.014;7.652;2023-11-21T12:26:28;10.10;99.90
64951;DHT22;51482;47.014;7.652;2023-11-21T12:28:54;10.20;99.90
64951;DHT22;51482;47.014;7.652;2023-11-21T12:31:23;10.40;99.90
64951;DHT22;51482;47.014;7.652;2023-11-21T12:33:48;10.30;99.90
64951;DHT22;51482;47.014;7.652;2023-11-21T12:36:14;10.40;99.90
64951;DHT22;51482;47.014;7.652;2023-11-21T12:38:40;10.40;99.90
64951;DHT22;51482;47.014;7.652;2023-11-21T12:41:06;10.30;99.90
64951;DHT22;51482;47.014;7.652;2023-11-21T12:43:35;10.40;99.90
64951;DHT22;51482;47.014;7.652;2023-11-21T12:46:08;10.40;99.90
64951;DHT22;51482;47.014;7.652;2023-11-21T12:48:37;10.50;99.90
64951;DHT22;51482;47.014;7.652;2023-11-21T12:51:05;10.40;99.90
64951;DHT22;51482;47.014;7.652;2023-11-21T12:53:32;10.40;99.90
64951;DHT22;51482;47.014;7.652;2023-11-21T12:56:05;10.90;99.90
64951;DHT22;51482;47.014;7.652;2023-11-21T12:58:31;10.50;99.90
64951;DHT22;51482;47.014;7.652;2023-11-21T13:00:59;10.90;99.90
64951;DHT22;51482;47.014;7.652;2023-11-21T13:03:25;10.50;99.90
64951;DHT22;51482;47.014;7.652;2023-11-21T13:05:51;10.50;99.90
64951;DHT22;51482;47.014;7.652;2023-11-21T13:08:20;10.40;99.90
64951;DHT22;51482;47.014;7.652;2023-11-21T13:10:53;10.90;99.90
64951;DHT22;51482;47.014;7.652;2023-11-21T13:13:20;10.50;99.90
64951;DHT22;51482;47.014;7.652;2023-11-21T13:15:50;10.50;99.90
64951;DHT22;51482;47.014;7.652;2023-11-21T13:18:16;10.50;99.90
64951;DHT22;51482;47.014;7.652;2023-11-21T13:20:42;10.40;99.90
64951;DHT22;51482;47.014;7.652;2023-11-21T13:23:10;10.50;99.90
64951;DHT22;51482;47.014;7.652;2023-11-21T13:25:41;10.40;99.90
64951;DHT22;51482;47.014;7.652;2023-11-21T13:28:07;10.50;99.90
64951;DHT22;51482;47.014;7.652;2023-11-21T13:30:33;10.40;99.90
64951;DHT22;51482;47.014;7.652;2023-11-21T13:33:03;10.80;99.90
64951;DHT22;51482;47.014;7.652;2023-11-21T13:35:31;10.30;99.90
64951;DHT22;51482;47.014;7.652;2023-11-21T13:38:13;10.10;99.90
64951;DHT22;51482;47.014;7.652;2023-11-21T13:40:41;9.70;99.90
64951;DHT22;51482;47.014;7.652;2023-11-21T13:43:16;10.00;99.90
64951;DHT22;51482;47.014;7.652;2023-11-21T13:45:44;9.80;99.90
64951;DHT22;51482;47.014;7.652;2023-11-21T13:48:11;10.60;99.90
64951;DHT22;51482;47.014;7.652;2023-11-21T13:50:42;9.80;99.90
64951;DHT22;51482;47.014;7.652;2023-11-21T13:53:23;10.10;99.90
64951;DHT22;51482;47.014;7.652;2023-11-21T13:55:52;10.20;99.90
64951;DHT22;51482;47.014;7.652;2023-11-21T13:58:23;10.80;99.90
64951;DHT22;51482;47.014;7.652;2023-11-21T14:01:00;10.30;99.90
64951;DHT22;51482;47.014;7.652;2023-11-21T14:03:31;10.30;99.90
64951;DHT22;51482;47.014;7.652;2023-11-21T14:06:10;10.50;99.90
64951;DHT22;51482;47.014;7.652;2023-11-21T14:08:40;10.50;99.90
64951;DHT22;51482;47.014;7.652;2023-11-21T14:11:07;10.60;99.90
64951;DHT22;51482;47.014;7.652;2023-11-21T14:13:32;10.60;99.90
64951;DHT22;51482;47.014;7.652;2023-11-21T14:15:58;10.60;99.90
64951;DHT22;51482;47.014;7.652;2023-11-21T14:18:27;10.60;99.90
64951;DHT22;51482;47.014;7.652;2023-11-21T14:21:04;10.60;99.90
64951;DHT22;51482;47.014;7.652;2023-11-21T14:23:31;10.70;99.90
64951;DHT22;51482;47.014;7.652;2023-11-21T14:25:56;10.70;99.90
64951;DHT22;51482;47.014;7.652;2023-11-21T14:28:23;10.90;99.90
64951;DHT22;51482;47.014;7.652;2023-11-21T14:30:48;11.20;99.90
64951;DHT22;51482;47.014;7.652;2023-11-21T14:33:14;11.10;99.90
64951;DHT22;51482;47.014;7.652;2023-11-21T14:35:42;11.10;99.90
64951;DHT22;51482;47.014;7.652;2023-11-21T14:38:08;10.90;99.90
64951;DHT22;51482;47.014;7.652;2023-11-21T14:40:36;10.70;99.90
64951;DHT22;51482;47.014;7.652;2023-11-21T14:43:02;10.60;99.90
64951;DHT22;51482;47.014;7.652;2023-11-21T14:45:31;10.50;99.90
64951;DHT22;51482;47.014;7.652;2023-11-21T14:47:56;10.30;99.90
64951;DHT22;51482;47.014;7.652;2023-11-21T14:50:32;10.20;99.90
64951;DHT22;51482;47.014;7.652;2023-11-21T14:53:14;10.30;99.90
64951;DHT22;51482;47.014;7.652;2023-11-21T14:55:39;10.20;99.90
64951;DHT22;51482;47.014;7.652;2023-11-21T14:58:17;10.20;99.90
64951;DHT22;51482;47.014;7.652;2023-11-21T15:00:56;10.20;99.90
64951;DHT22;51482;47.014;7.652;2023-11-21T15:03:26;10.30;99.90
64951;DHT22;51482;47.014;7.652;2023-11-21T15:06:09;10.10;99.90
64951;DHT22;51482;47.014;7.652;2023-11-21T15:08:52;10.10;99.90
64951;DHT22;51482;47.014;7.652;2023-11-21T15:11:26;10.20;99.90
64951;DHT22;51482;47.014;7.652;2023-11-21T15:13:56;10.70;99.90
64951;DHT22;51482;47.014;7.652;2023-11-21T15:16:22;10.20;99.90
64951;DHT22;51482;47.014;7.652;2023-11-21T15:18:48;10.20;99.90
64951;DHT22;51482;47.014;7.652;2023-11-21T15:21:14;10.10;99.90
64951;DHT22;51482;47.014;7.652;2023-11-21T15:23:40;10.10;99.90
64951;DHT22;51482;47.014;7.652;2023-11-21T15:26:07;10.20;99.90
64951;DHT22;51482;47.014;7.652;2023-11-21T15:28:34;10.20;99.90
64951;DHT22;51482;47.014;7.652;2023-11-21T15:30:59;10.00;99.90
64951;DHT22;51482;47.014;7.652;2023-11-21T15:33:25;10.60;99.90
64951;DHT22;51482;47.014;7.652;2023-11-21T15:35:53;10.00;99.90
64951;DHT22;51482;47.014;7.652;2023-11-21T15:38:20;9.90;99.90
64951;DHT22;51482;47.014;7.652;2023-11-21T15:40:46;9.90;99.90
64951;DHT22;51482;47.014;7.652;2023-11-21T15:43:12;9.80;99.90
64951;DHT22;51482;47.014;7.652;2023-11-21T15:45:39;9.90;99.90
64951;DHT22;51482;47.014;7.652;2023-11-21T15:48:05;9.80;99.90
64951;DHT22;51482;47.014;7.652;2023-11-21T15:50:31;9.80;99.90
64951;DHT22;51482;47.014;7.652;2023-11-21T15:52:57;9.80;99.90
64951;DHT22;51482;47.014;7.652;2023-11-21T15:55:24;9.60;99.90